Time;durP1;ratioP1;P1;durP2;ratioP2;P2;SDS_P1;SDS_P2;PMS_P1;PMS_P2;Temp;Humidity;BMP_temperature;BMP_pressure;BME280_temperature;BME280_humidity;BME280_pressure;Samples;Min_cycle;Max_cycle;Signal;HPM_P1;HPM_P2
2024/02/02 00:01:28;;;;;;;4.10;3.50;;;;;;;4.34;95.75;98868.66;6139217;28;20223;-60
2024/02/02 00:04:31;;;;;;;4.37;3.97;;;;;;;4.49;95.11;98869.56;6141842;29;20664;-59
2024/02/02 00:07:33;;;;;;;4.07;3.40;;;;;;;4.68;94.14;98881.50;6149826;29;20699;-60
2024/02/02 00:10:35;;;;;;;3.73;3.23;;;;;;;4.66;94.11;98880.81;6144174;29;20192;-60
2024/02/02 00:13:38;;;;;;;3.57;3.10;;;;;;;4.44;96.21;98882.44;6133433;28;20203;-60
2024/02/02 00:16:40;;;;;;;3.97;3.40;;;;;;;4.50;96.41;98887.03;6141554;29;20247;-59
2024/02/02 00:19:42;;;;;;;4.07;3.03;;;;;;;4.64;93.34;98878.38;6143520;29;20290;-60
2024/02/02 00:22:46;;;;;;;4.33;3.00;;;;;;;4.64;93.46;98880.19;6136515;28;20281;-60
2024/02/02 00:25:48;;;;;;;3.40;3.10;;;;;;;4.63;93.63;98882.00;6141984;28;20239;-60
2024/02/02 00:28:50;;;;;;;4.23;3.27;;;;;;;4.72;92.93;98868.75;6145068;28;20205;-59
2024/02/02 00:31:52;;;;;;;4.50;3.27;;;;;;;4.68;92.08;98863.00;6144276;28;20198;-58
2024/02/02 00:34:54;;;;;;;4.70;3.33;;;;;;;4.51;95.13;98872.00;6149029;28;20718;-59
2024/02/02 00:37:57;;;;;;;3.40;3.10;;;;;;;4.38;95.71;98844.38;6142485;29;20191;-60
2024/02/02 00:40:59;;;;;;;4.10;3.47;;;;;;;4.40;97.46;98858.22;6143072;28;20218;-60
2024/02/02 00:44:03;;;;;;;6.97;4.23;;;;;;;4.42;98.00;98873.84;6145273;29;20201;-59
2024/02/02 00:47:06;;;;;;;5.97;4.57;;;;;;;4.34;99.17;98874.75;6119845;29;20209;-60
2024/02/02 00:50:10;;;;;;;5.23;3.93;;;;;;;4.22;99.66;98865.56;6164381;28;20240;-61
2024/02/02 00:53:12;;;;;;;6.03;4.77;;;;;;;4.23;100.00;98858.47;6165441;28;20199;-60
2024/02/02 00:56:15;;;;;;;6.43;5.20;;;;;;;4.24;100.00;98875.94;6167224;28;20191;-59
2024/02/02 00:59:17;;;;;;;6.67;4.43;;;;;;;4.03;100.00;98876.50;6169318;28;20216;-60
2024/02/02 01:02:19;;;;;;;7.67;6.53;;;;;;;4.08;100.00;98868.91;6167932;28;20203;-59
2024/02/02 01:05:21;;;;;;;5.97;4.87;;;;;;;3.98;100.00;98871.75;6159459;28;20664;-60
2024/02/02 01:08:24;;;;;;;7.13;5.97;;;;;;;4.15;100.00;98883.06;6165790;28;20194;-57
2024/02/02 01:11:26;;;;;;;7.30;5.90;;;;;;;3.92;100.00;98863.69;6155763;28;20194;-58
2024/02/02 01:14:29;;;;;;;7.03;5.93;;;;;;;3.86;100.00;98868.66;6161481;28;20257;-60
2024/02/02 01:17:31;;;;;;;6.30;5.50;;;;;;;3.89;100.00;98862.22;6166553;28;20198;-60
2024/02/02 01:20:34;;;;;;;6.60;5.27;;;;;;;3.86;100.00;98866.03;6162943;28;20564;-60
2024/02/02 01:23:36;;;;;;;7.00;4.63;;;;;;;3.62;100.00;98868.72;6168644;28;20210;-61
2024/02/02 01:26:38;;;;;;;5.40;4.57;;;;;;;3.56;100.00;98867.59;6165078;28;20642;-61
2024/02/02 01:29:40;;;;;;;5.40;4.40;;;;;;;3.40;100.00;98869.41;6164745;28;20201;-59
2024/02/02 01:32:43;;;;;;;6.00;4.40;;;;;;;3.83;98.50;98868.16;6154953;28;20689;-60
2024/02/02 01:35:45;;;;;;;6.23;4.20;;;;;;;4.01;96.98;98881.97;6157255;28;20615;-60
2024/02/02 01:38:50;;;;;;;4.97;4.13;;;;;;;4.11;95.89;98876.47;6157628;28;20671;-60
2024/02/02 01:41:52;;;;;;;7.07;4.57;;;;;;;4.09;95.28;98870.56;6159857;28;20225;-60
2024/02/02 01:44:54;;;;;;;5.40;3.80;;;;;;;3.83;97.06;98847.91;6158087;28;20576;-60
2024/02/02 01:47:57;;;;;;;5.53;4.40;;;;;;;4.04;96.07;98864.97;6154413;28;20277;-61
2024/02/02 01:50:59;;;;;;;5.27;4.20;;;;;;;3.97;96.52;98861.38;6164138;28;20284;-61
2024/02/02 01:54:03;;;;;;;7.53;4.67;;;;;;;3.91;97.97;98864.69;6157303;28;20284;-60
2024/02/02 01:57:05;;;;;;;6.77;4.50;;;;;;;4.03;97.30;98876.50;6161682;28;20747;-60
2024/02/02 02:00:08;;;;;;;8.57;4.83;;;;;;;3.87;97.66;98870.28;6155777;28;20311;-59
2024/02/02 02:03:11;;;;;;;6.33;4.87;;;;;;;3.87;98.11;98872.94;6157484;28;20202;-60
2024/02/02 02:06:13;;;;;;;5.50;4.50;;;;;;;3.65;99.17;98864.94;6151217;28;20198;-60
2024/02/02 02:09:16;;;;;;;5.27;3.70;;;;;;;3.41;100.00;98886.88;6158685;28;20197;-60
2024/02/02 02:12:18;;;;;;;5.67;4.23;;;;;;;3.17;100.00;98878.00;6163195;28;20209;-59
2024/02/02 02:15:20;;;;;;;5.43;4.17;;;;;;;2.95;100.00;98882.09;6162398;28;20201;-60
2024/02/02 02:18:22;;;;;;;5.37;4.20;;;;;;;2.65;100.00;98867.75;6162602;28;20281;-60
2024/02/02 02:21:26;;;;;;;7.27;4.47;;;;;;;3.21;100.00;98871.41;6168196;28;20229;-61
2024/02/02 02:24:29;;;;;;;7.23;4.73;;;;;;;3.67;98.05;98876.13;6164160;28;20240;-60
2024/02/02 02:27:32;;;;;;;5.07;4.00;;;;;;;3.60;96.64;98862.81;6159335;28;20239;-60
2024/02/02 02:30:34;;;;;;;6.93;4.10;;;;;;;3.88;93.93;98858.75;6163353;28;20202;-60
2024/02/02 02:33:37;;;;;;;5.33;3.97;;;;;;;3.96;92.57;98867.66;6142666;28;20282;-60
2024/02/02 02:36:39;;;;;;;5.77;4.37;;;;;;;4.07;92.21;98851.44;6155031;28;20195;-60
2024/02/02 02:39:41;;;;;;;5.90;3.87;;;;;;;3.81;95.27;98859.63;6160667;28;20611;-60
2024/02/02 02:42:43;;;;;;;6.50;4.00;;;;;;;3.82;94.62;98845.44;6158172;28;20560;-61
2024/02/02 02:45:46;;;;;;;7.50;4.60;;;;;;;4.12;94.20;98852.56;6160745;28;20294;-60
2024/02/02 02:48:48;;;;;;;8.33;4.30;;;;;;;4.02;95.16;98849.31;6159241;28;20859;-59
2024/02/02 02:51:50;;;;;;;9.93;5.53;;;;;;;4.06;96.31;98847.16;6162038;28;20928;-60
2024/02/02 02:54:53;;;;;;;7.67;5.10;;;;;;;4.13;93.80;98843.66;6158318;28;20989;-59
2024/02/02 02:57:55;;;;;;;6.57;5.20;;;;;;;4.12;93.78;98854.38;6154392;28;20194;-59
2024/02/02 03:00:57;;;;;;;7.67;4.67;;;;;;;4.04;92.18;98849.13;6157025;28;20211;-59
2024/02/02 03:03:59;;;;;;;9.03;4.50;;;;;;;4.13;92.69;98840.19;6162320;28;20568;-60
2024/02/02 03:07:04;;;;;;;5.93;3.93;;;;;;;4.17;88.59;98843.31;6155867;28;20216;-60
2024/02/02 03:10:08;;;;;;;5.53;4.27;;;;;;;4.13;88.68;98841.03;6147610;28;20715;-59
2024/02/02 03:13:10;;;;;;;7.53;3.90;;;;;;;4.09;87.71;98833.66;6164519;28;20190;-59
2024/02/02 03:16:13;;;;;;;9.83;4.77;;;;;;;4.18;88.11;98852.88;6146680;28;20226;-58
2024/02/02 03:19:15;;;;;;;8.10;4.93;;;;;;;4.14;88.50;98847.16;6165285;28;20584;-60
2024/02/02 03:22:18;;;;;;;6.77;4.97;;;;;;;4.22;89.35;98864.72;6157175;28;20218;-60
2024/02/02 03:25:20;;;;;;;6.50;5.07;;;;;;;4.17;89.65;98854.69;6165573;28;20280;-57
2024/02/02 03:28:23;;;;;;;8.47;4.83;;;;;;;4.02;91.02;98861.69;6161094;28;20236;-59
2024/02/02 03:31:25;;;;;;;8.93;4.80;;;;;;;3.99;91.24;98859.38;6155942;28;20194;-59
2024/02/02 03:34:27;;;;;;;9.10;5.70;;;;;;;4.06;90.73;98853.25;6164032;28;20200;-60
2024/02/02 03:37:29;;;;;;;6.97;4.93;;;;;;;4.11;90.29;98850.13;6155269;28;20210;-60
2024/02/02 03:40:32;;;;;;;8.53;5.27;;;;;;;4.07;91.20;98864.63;6154832;28;20749;-59
2024/02/02 03:43:34;;;;;;;10.63;5.30;;;;;;;3.87;93.08;98877.38;6159597;28;20196;-58
2024/02/02 03:46:36;;;;;;;7.70;5.40;;;;;;;3.96;92.75;98872.91;6166258;28;20197;-60
2024/02/02 03:49:38;;;;;;;7.23;5.70;;;;;;;3.84;93.41;98880.34;6155756;28;20385;-59
2024/02/02 03:52:40;;;;;;;9.87;5.87;;;;;;;3.83;93.55;98874.25;6161528;28;20581;-60
2024/02/02 03:55:42;;;;;;;7.33;5.30;;;;;;;3.74;94.71;98879.72;6157584;28;20592;-61
2024/02/02 03:58:45;;;;;;;9.30;5.40;;;;;;;3.75;94.74;98881.38;6161760;28;20204;-59
2024/02/02 04:01:47;;;;;;;9.53;5.47;;;;;;;3.78;94.96;98884.47;6160209;28;20248;-62
2024/02/02 04:04:49;;;;;;;8.90;6.07;;;;;;;3.65;96.29;98893.94;6160886;28;20246;-58
2024/02/02 04:07:51;;;;;;;12.50;6.33;;;;;;;3.70;96.47;98884.53;6149225;28;20196;-59
2024/02/02 04:10:54;;;;;;;9.93;5.87;;;;;;;3.87;95.43;98886.13;6160167;28;20197;-59
2024/02/02 04:13:56;;;;;;;8.23;6.40;;;;;;;3.70;96.07;98881.88;6157096;28;20199;-58
2024/02/02 04:16:58;;;;;;;10.70;6.67;;;;;;;3.77;96.77;98882.84;6151592;28;20198;-60
2024/02/02 04:20:00;;;;;;;10.80;6.67;;;;;;;3.70;98.64;98883.72;6157699;28;20220;-60
2024/02/02 04:23:02;;;;;;;14.27;8.20;;;;;;;3.75;99.27;98897.19;6164600;28;20680;-60
2024/02/02 04:26:05;;;;;;;12.33;8.47;;;;;;;3.86;99.95;98894.19;6159439;28;20233;-60
2024/02/02 04:29:07;;;;;;;11.73;8.97;;;;;;;3.83;100.00;98883.97;6159696;28;20208;-60
2024/02/02 04:32:09;;;;;;;12.53;9.63;;;;;;;3.83;100.00;98892.72;6152983;28;20682;-59
2024/02/02 04:35:11;;;;;;;13.47;10.83;;;;;;;3.92;100.00;98885.59;6156250;28;20216;-60
2024/02/02 04:38:17;;;;;;;13.77;10.63;;;;;;;3.98;100.00;98894.66;6167109;28;20217;-59
2024/02/02 04:41:19;;;;;;;15.73;10.37;;;;;;;3.88;100.00;98886.94;6161834;28;20221;-61
2024/02/02 04:44:21;;;;;;;14.23;10.87;;;;;;;3.96;100.00;98891.38;6160994;28;20643;-60
2024/02/02 04:47:23;;;;;;;16.50;11.87;;;;;;;4.08;100.00;98890.00;6161937;28;20193;-61
2024/02/02 04:50:28;;;;;;;15.83;12.47;;;;;;;4.09;100.00;98894.31;6160137;28;20247;-60
2024/02/02 04:53:31;;;;;;;15.67;12.40;;;;;;;4.13;100.00;98890.31;6165197;28;20198;-60
2024/02/02 04:56:33;;;;;;;17.17;13.07;;;;;;;3.94;100.00;98874.88;6154402;28;20576;-58
2024/02/02 04:59:36;;;;;;;19.17;12.60;;;;;;;4.14;100.00;98884.88;6166366;28;20194;-59
2024/02/02 05:02:38;;;;;;;14.90;12.20;;;;;;;4.11;100.00;98892.31;6164365;28;20697;-59
2024/02/02 05:05:40;;;;;;;15.83;11.70;;;;;;;4.22;100.00;98889.28;6163247;28;20208;-60
2024/02/02 05:08:46;;;;;;;14.87;11.37;;;;;;;4.33;100.00;98888.91;6161844;28;20186;-61
2024/02/02 05:11:48;;;;;;;16.57;12.70;;;;;;;4.28;100.00;98879.88;6159260;28;20230;-59
2024/02/02 05:14:50;;;;;;;15.57;12.33;;;;;;;4.23;100.00;98904.13;6157729;28;20281;-59
2024/02/02 05:17:52;;;;;;;14.03;11.73;;;;;;;4.39;100.00;98896.16;6160443;28;20206;-59
2024/02/02 05:20:55;;;;;;;15.90;13.03;;;;;;;4.20;100.00;98903.66;6153598;28;20214;-57
2024/02/02 05:23:58;;;;;;;15.93;11.53;;;;;;;4.38;100.00;98897.16;6163443;28;20199;-61
2024/02/02 05:27:19;;;;;;;13.63;11.63;;;;;;;4.46;100.00;98906.00;6162054;28;20202;-61
2024/02/02 05:30:21;;;;;;;16.50;12.50;;;;;;;4.37;100.00;98908.66;6158277;28;20195;-60
2024/02/02 05:33:24;;;;;;;15.30;11.50;;;;;;;4.30;100.00;98891.91;6159612;28;20784;-60
2024/02/02 05:36:26;;;;;;;11.53;10.33;;;;;;;4.16;100.00;98895.25;6155715;28;20205;-60
2024/02/02 05:39:28;;;;;;;12.93;10.43;;;;;;;3.97;100.00;98907.00;6164321;28;20551;-61
2024/02/02 05:42:30;;;;;;;13.80;10.77;;;;;;;3.82;100.00;98898.97;6153121;28;20217;-61
2024/02/02 05:45:33;;;;;;;12.67;10.50;;;;;;;3.71;100.00;98899.34;6164319;28;20218;-60
2024/02/02 05:48:35;;;;;;;16.63;12.10;;;;;;;3.93;100.00;98907.50;6160351;28;20237;-60
2024/02/02 05:51:37;;;;;;;12.63;10.73;;;;;;;3.85;100.00;98900.47;6159478;28;20196;-61
2024/02/02 05:54:40;;;;;;;14.10;11.27;;;;;;;3.97;100.00;98917.56;6160140;28;20212;-61
2024/02/02 05:57:42;;;;;;;14.07;11.00;;;;;;;3.84;100.00;98933.91;6163893;28;20205;-61
2024/02/02 06:00:45;;;;;;;14.80;11.17;;;;;;;3.85;100.00;98942.66;6165142;28;20206;-61
2024/02/02 06:03:47;;;;;;;14.67;11.30;;;;;;;3.75;100.00;98932.28;6152933;28;20282;-61
2024/02/02 06:06:50;;;;;;;13.73;10.83;;;;;;;3.82;100.00;98956.97;6161063;28;20207;-61
2024/02/02 06:09:52;;;;;;;13.50;11.00;;;;;;;3.72;100.00;98966.88;6167063;28;20685;-60
2024/02/02 06:12:54;;;;;;;16.13;10.37;;;;;;;3.63;100.00;98976.56;6158291;28;20195;-61
2024/02/02 06:15:57;;;;;;;11.87;9.77;;;;;;;3.76;100.00;98977.91;6156485;28;20226;-61
2024/02/02 06:18:59;;;;;;;15.37;10.20;;;;;;;3.49;100.00;98979.06;6160089;28;20285;-60
2024/02/02 06:22:02;;;;;;;14.20;11.17;;;;;;;3.49;100.00;98979.88;6155485;28;20692;-60
2024/02/02 06:25:05;;;;;;;15.00;10.47;;;;;;;3.19;100.00;98959.44;6153004;28;20198;-61
2024/02/02 06:28:08;;;;;;;17.57;11.53;;;;;;;3.46;100.00;98982.03;6163478;28;20191;-62
2024/02/02 06:31:10;;;;;;;16.23;11.03;;;;;;;3.66;100.00;98978.06;6156522;28;20719;-61
2024/02/02 06:34:12;;;;;;;15.27;11.17;;;;;;;3.81;100.00;98980.88;6155190;28;20620;-61
2024/02/02 06:37:15;;;;;;;14.93;10.67;;;;;;;3.79;100.00;98983.66;6154757;28;20293;-61
2024/02/02 06:40:17;;;;;;;13.20;10.60;;;;;;;3.82;100.00;98985.13;6155026;28;20226;-60
2024/02/02 06:43:19;;;;;;;12.07;9.70;;;;;;;3.73;100.00;98997.50;6159145;28;20585;-60
2024/02/02 06:46:21;;;;;;;12.23;9.77;;;;;;;3.67;100.00;99007.88;6156616;28;20767;-61
2024/02/02 06:49:23;;;;;;;18.17;10.00;;;;;;;3.74;100.00;99006.22;6160832;28;20886;-61
2024/02/02 06:52:26;;;;;;;12.63;9.53;;;;;;;3.69;100.00;99006.72;6154719;28;20272;-60
2024/02/02 06:55:29;;;;;;;14.13;9.40;;;;;;;3.88;100.00;99008.19;6158936;28;20217;-60
2024/02/02 06:58:38;;;;;;;12.23;8.97;;;;;;;3.95;99.43;99003.91;6164345;28;20229;-61
2024/02/02 07:01:41;;;;;;;10.93;9.10;;;;;;;3.89;100.00;99007.19;6161386;28;20232;-61
2024/02/02 07:04:43;;;;;;;11.60;9.27;;;;;;;3.97;99.12;99011.66;6162931;28;20842;-61
2024/02/02 07:07:45;;;;;;;11.23;8.43;;;;;;;3.93;98.91;99015.59;6160706;28;20264;-62
2024/02/02 07:11:02;;;;;;;13.30;8.70;;;;;;;3.79;99.56;98996.84;6159666;28;20198;-61
2024/02/02 07:14:21;;;;;;;10.93;8.43;;;;;;;3.92;98.91;98995.50;6155121;28;20202;-60
2024/02/02 07:17:37;;;;;;;12.83;8.87;;;;;;;4.06;96.77;98995.66;6158921;28;20704;-61
2024/02/02 07:21:01;;;;;;;12.90;8.23;;;;;;;4.11;96.04;98995.16;6162589;28;20250;-62
2024/02/02 07:24:03;;;;;;;12.13;7.87;;;;;;;4.20;94.38;98988.88;6144619;28;20624;-61
2024/02/02 07:27:06;;;;;;;13.27;8.27;;;;;;;4.20;94.27;98990.69;6159207;28;20195;-61
2024/02/02 07:30:34;;;;;;;9.17;7.30;;;;;;;4.30;93.27;98984.22;6162722;28;20199;-62
2024/02/02 07:33:40;;;;;;;12.97;7.50;;;;;;;4.33;92.31;98983.03;6142655;28;20230;-62
2024/02/02 07:36:44;;;;;;;11.33;7.80;;;;;;;4.35;94.80;98987.19;6149199;28;20319;-61
2024/02/02 07:39:47;;;;;;;12.13;7.80;;;;;;;4.35;95.09;98987.19;6151297;28;20274;-61
2024/02/02 07:42:49;;;;;;;10.77;6.63;;;;;;;4.39;90.25;98974.47;6155447;28;20568;-58
2024/02/02 07:45:51;;;;;;;10.23;6.57;;;;;;;4.39;89.07;98975.28;6160066;28;20235;-61
2024/02/02 07:48:54;;;;;;;10.83;7.20;;;;;;;4.58;89.30;98989.06;6155269;28;20234;-62
2024/02/02 07:51:57;;;;;;;9.43;6.20;;;;;;;4.56;90.63;98991.06;6157683;28;20194;-61
2024/02/02 07:54:59;;;;;;;8.60;6.00;;;;;;;4.21;92.70;98935.13;6163262;28;20188;-62
2024/02/02 07:58:01;;;;;;;7.70;5.23;;;;;;;4.57;91.44;98987.41;6162483;28;20205;-62
2024/02/02 08:01:06;;;;;;;7.70;5.53;;;;;;;4.57;91.37;98987.41;6165567;28;20230;-61
2024/02/02 08:04:09;;;;;;;11.80;6.77;;;;;;;4.68;88.61;98989.72;6156236;28;20787;-61
2024/02/02 08:07:11;;;;;;;8.43;6.00;;;;;;;4.74;86.18;98998.75;6159970;28;20362;-61
2024/02/02 08:10:14;;;;;;;10.30;5.73;;;;;;;4.77;85.44;99007.13;6161374;28;20289;-61
2024/02/02 08:13:18;;;;;;;9.67;6.13;;;;;;;4.87;84.53;99009.56;6162933;28;20682;-61
2024/02/02 08:16:20;;;;;;;6.73;5.20;;;;;;;4.97;81.94;98994.31;6165259;28;20194;-61
2024/02/02 08:19:22;;;;;;;7.47;5.07;;;;;;;4.98;84.44;99013.66;6162359;28;20210;-62
2024/02/02 08:22:25;;;;;;;8.13;5.63;;;;;;;4.90;82.02;98978.34;6159489;28;20317;-63
2024/02/02 08:25:27;;;;;;;7.43;5.27;;;;;;;5.07;81.87;99004.66;6151469;28;20281;-60
2024/02/02 08:28:31;;;;;;;7.93;5.43;;;;;;;5.04;83.68;98999.75;6161090;28;20200;-61
2024/02/02 08:31:49;;;;;;;8.33;4.40;;;;;;;5.06;87.36;99003.03;6141800;28;20300;-60
2024/02/02 08:34:51;;;;;;;8.43;4.87;;;;;;;5.00;87.72;98985.25;6163087;28;20199;-60
2024/02/02 08:37:59;;;;;;;7.17;4.13;;;;;;;4.97;83.04;98975.00;6166616;28;20203;-62
2024/02/02 08:41:03;;;;;;;9.03;4.60;;;;;;;5.21;80.13;99001.28;6164297;28;20239;-61
2024/02/02 08:44:15;;;;;;;6.57;4.53;;;;;;;5.41;78.72;99005.09;6165665;28;20208;-61
2024/02/02 08:47:19;;;;;;;7.10;4.10;;;;;;;5.53;77.31;99004.72;6162230;28;20207;-61
2024/02/02 08:50:21;;;;;;;5.83;3.30;;;;;;;5.66;79.22;99004.94;6161970;28;20246;-61
2024/02/02 08:53:24;;;;;;;12.47;4.27;;;;;;;5.76;77.37;98991.47;6159378;28;20203;-60
2024/02/02 08:56:26;;;;;;;7.07;3.37;;;;;;;6.02;72.78;99005.16;6165587;28;20217;-61
2024/02/02 08:59:32;;;;;;;6.50;3.67;;;;;;;6.03;73.46;99006.78;6155849;28;20667;-61
2024/02/02 09:03:05;;;;;;;6.40;3.40;;;;;;;6.23;69.54;99004.44;6162428;28;20697;-61
2024/02/02 09:06:18;;;;;;;7.57;3.77;;;;;;;6.28;70.00;99002.09;6167236;28;20609;-59
2024/02/02 09:09:20;;;;;;;5.43;2.93;;;;;;;6.19;70.21;99003.97;6166731;28;20733;-61
2024/02/02 09:12:27;;;;;;;4.03;3.03;;;;;;;6.26;70.73;99005.94;6165415;28;20279;-61
2024/02/02 09:15:33;;;;;;;9.37;3.30;;;;;;;6.29;74.91;99011.66;6165675;28;20255;-61
2024/02/02 09:18:40;;;;;;;5.67;2.70;;;;;;;6.46;75.31;99023.72;6156782;28;20636;-61
2024/02/02 09:21:43;;;;;;;8.93;2.90;;;;;;;6.49;71.65;99014.59;6158297;28;20554;-61
2024/02/02 09:24:47;;;;;;;5.57;3.00;;;;;;;6.88;68.46;99019.59;6163528;28;20205;-61
2024/02/02 09:27:49;;;;;;;5.20;2.90;;;;;;;6.68;69.68;99021.16;6167629;28;20272;-61
2024/02/02 09:30:55;;;;;;;7.97;2.80;;;;;;;6.73;71.14;99029.38;6155516;28;20216;-61
2024/02/02 09:34:03;;;;;;;7.20;2.87;;;;;;;6.56;70.18;99022.63;6156787;28;20197;-61
2024/02/02 09:37:09;;;;;;;7.37;2.77;;;;;;;6.62;69.08;99016.59;6158985;28;20226;-61
2024/02/02 09:40:40;;;;;;;7.63;2.70;;;;;;;6.80;68.19;99016.22;6161477;28;20217;-61
2024/02/02 09:44:03;;;;;;;6.77;2.43;;;;;;;7.07;67.74;99009.41;6168168;28;20602;-61
2024/02/02 09:47:20;;;;;;;6.03;2.63;;;;;;;6.85;66.62;99019.16;6164252;28;20236;-58
2024/02/02 09:50:34;;;;;;;7.53;2.80;;;;;;;6.85;64.35;98996.13;6162193;28;20278;-61
2024/02/02 09:53:50;;;;;;;9.53;2.60;;;;;;;7.24;64.32;99014.31;6163885;28;20213;-61
2024/02/02 09:57:25;;;;;;;6.73;2.50;;;;;;;7.29;67.05;99011.09;6158652;28;20207;-61
2024/02/02 10:01:13;;;;;;;8.07;2.40;;;;;;;7.62;64.34;99006.09;6163554;28;20194;-59
2024/02/02 10:04:24;;;;;;;5.53;2.30;;;;;;;7.83;66.28;99013.25;6091619;29;20208;-60
2024/02/02 10:07:42;;;;;;;8.03;2.10;;;;;;;7.68;63.73;99000.03;6094802;28;20764;-61
2024/02/02 10:11:21;;;;;;;6.57;2.43;;;;;;;7.88;63.21;99028.56;6157770;28;20230;-61
2024/02/02 10:14:45;;;;;;;8.50;2.10;;;;;;;7.37;62.09;99012.81;6167632;28;20199;-62
2024/02/02 10:17:56;;;;;;;5.50;2.80;;;;;;;7.36;60.48;99013.81;6162021;28;20725;-62
2024/02/02 10:21:11;;;;;;;6.63;2.63;;;;;;;7.28;59.91;99013.91;6152139;28;20341;-62
2024/02/02 10:24:45;;;;;;;5.13;2.53;;;;;;;7.48;60.49;99007.00;6145099;28;20676;-61
2024/02/02 10:28:06;;;;;;;6.80;2.43;;;;;;;7.53;61.39;98999.28;6155020;28;20206;-61
2024/02/02 10:31:27;;;;;;;6.43;2.07;;;;;;;7.48;56.76;98996.38;6157733;28;20254;-61
2024/02/02 10:34:47;;;;;;;7.20;2.40;;;;;;;7.52;59.81;98994.19;6162345;28;20202;-59
2024/02/02 10:37:50;;;;;;;5.90;2.10;;;;;;;7.46;57.44;98982.50;6163204;28;20371;-60
2024/02/02 10:41:15;;;;;;;6.37;1.97;;;;;;;7.34;60.65;98990.16;6154311;28;20194;-61
2024/02/02 10:44:39;;;;;;;4.93;2.20;;;;;;;7.37;58.53;98987.09;6155840;28;20203;-61
2024/02/02 10:47:43;;;;;;;5.47;1.90;;;;;;;7.45;59.51;98987.00;6163048;28;20660;-61
2024/02/02 10:51:11;;;;;;;5.53;2.20;;;;;;;7.59;58.05;98980.00;6164317;28;20234;-61
2024/02/02 10:54:34;;;;;;;3.50;2.00;;;;;;;7.76;56.29;98975.22;6160636;28;20190;-60
2024/02/02 10:58:04;;;;;;;4.03;2.03;;;;;;;7.76;55.58;98981.34;6154696;28;20304;-61
2024/02/02 11:01:25;;;;;;;4.77;2.10;;;;;;;7.71;59.32;98969.69;6162967;28;20292;-61
2024/02/02 11:04:53;;;;;;;4.27;1.93;;;;;;;7.66;55.82;98967.59;6159089;28;20568;-59
2024/02/02 11:08:06;;;;;;;3.40;1.87;;;;;;;7.69;58.11;98953.16;6151784;28;20191;-61
2024/02/02 11:11:12;;;;;;;6.27;2.13;;;;;;;7.57;58.87;98947.53;6158318;28;20689;-61
2024/02/02 11:14:37;;;;;;;4.57;2.30;;;;;;;7.71;61.19;98941.31;6161512;28;20197;-61
2024/02/02 11:18:03;;;;;;;5.53;2.30;;;;;;;7.83;56.09;98919.56;6155180;28;20701;-61
2024/02/02 11:21:14;;;;;;;6.33;2.47;;;;;;;8.13;59.70;98921.00;6159032;28;20667;-61
2024/02/02 11:24:48;;;;;;;3.80;1.80;;;;;;;8.43;55.03;98921.59;6160114;28;20684;-61
2024/02/02 11:28:07;;;;;;;5.13;2.40;;;;;;;8.47;56.36;98912.22;6161999;28;20476;-61
2024/02/02 11:31:41;;;;;;;7.77;2.47;;;;;;;8.35;56.69;98913.75;6154905;28;20218;-61
2024/02/02 11:34:49;;;;;;;6.07;2.63;;;;;;;8.00;56.76;98915.59;6151867;28;20198;-61
2024/02/02 11:38:28;;;;;;;3.53;2.20;;;;;;;7.69;56.00;98900.09;6151150;28;20272;-60
2024/02/02 11:41:33;;;;;;;3.93;2.07;;;;;;;7.72;56.70;98895.22;6157521;28;20240;-60
2024/02/02 11:44:36;;;;;;;4.47;1.97;;;;;;;7.47;56.43;98883.41;6165165;28;20536;-60
2024/02/02 11:47:53;;;;;;;6.30;2.43;;;;;;;7.66;59.84;98882.72;6161129;28;20209;-60
2024/02/02 11:50:55;;;;;;;5.80;2.57;;;;;;;7.89;57.26;98873.69;6162418;28;20617;-60
2024/02/02 11:54:02;;;;;;;5.33;2.23;;;;;;;7.76;56.47;98877.09;6162284;28;20243;-61
2024/02/02 11:57:12;;;;;;;8.20;2.73;;;;;;;8.00;57.00;98892.53;6159474;28;20697;-58
2024/02/02 12:00:31;;;;;;;3.63;2.20;;;;;;;7.85;56.05;98870.63;6160486;28;20959;-60
2024/02/02 12:03:55;;;;;;;4.13;2.17;;;;;;;7.87;56.62;98886.31;6155703;28;20206;-60
2024/02/02 12:07:34;;;;;;;6.83;2.60;;;;;;;7.84;55.71;98874.28;6164286;28;20277;-60
2024/02/02 12:10:41;;;;;;;5.27;2.53;;;;;;;7.75;56.09;98878.91;6162886;28;20308;-59
2024/02/02 12:13:46;;;;;;;5.83;2.87;;;;;;;7.68;58.24;98863.97;6155696;28;20213;-60
2024/02/02 12:16:50;;;;;;;6.80;2.53;;;;;;;7.88;57.66;98882.66;6165838;28;20190;-60
2024/02/02 12:19:52;;;;;;;5.40;2.73;;;;;;;8.01;57.78;98874.78;6159083;28;20189;-61
2024/02/02 12:22:55;;;;;;;3.87;2.60;;;;;;;7.90;56.63;98860.22;6164336;28;20220;-60
2024/02/02 12:26:00;;;;;;;8.50;2.50;;;;;;;8.09;56.08;98871.16;6154005;28;20205;-60
2024/02/02 12:29:02;;;;;;;4.90;2.90;;;;;;;8.10;58.83;98863.00;6160707;28;20206;-60
2024/02/02 12:32:05;;;;;;;4.53;2.53;;;;;;;7.98;56.99;98854.78;6150341;28;20210;-60
2024/02/02 12:35:08;;;;;;;4.77;2.50;;;;;;;7.50;59.19;98830.00;6157207;28;20193;-60
2024/02/02 12:38:21;;;;;;;4.20;2.53;;;;;;;7.47;59.45;98838.31;6157293;28;20198;-61
2024/02/02 12:41:23;;;;;;;7.30;2.63;;;;;;;7.57;61.27;98836.16;6155952;28;20423;-61
2024/02/02 12:44:26;;;;;;;7.27;3.20;;;;;;;7.80;59.47;98840.38;6154235;28;20198;-60
2024/02/02 12:47:29;;;;;;;5.20;2.97;;;;;;;7.68;61.36;98842.75;6153722;28;20281;-59
2024/02/02 12:50:32;;;;;;;5.23;3.17;;;;;;;7.69;60.99;98841.75;6158464;28;20238;-59
2024/02/02 12:53:35;;;;;;;4.33;2.80;;;;;;;7.61;61.26;98831.28;6153389;28;20230;-59
2024/02/02 12:56:37;;;;;;;5.33;3.20;;;;;;;7.60;61.14;98809.25;6158067;28;20808;-61
2024/02/02 12:59:40;;;;;;;5.53;3.30;;;;;;;7.68;62.04;98798.47;6165408;28;20205;-58
2024/02/02 13:02:45;;;;;;;6.83;3.40;;;;;;;7.47;62.82;98809.97;6162684;28;20213;-61
2024/02/02 13:05:50;;;;;;;10.83;3.60;;;;;;;7.24;63.48;98828.78;6166409;28;20197;-60
2024/02/02 13:08:55;;;;;;;14.00;4.50;;;;;;;7.02;64.33;98815.75;6163244;28;20736;-60
2024/02/02 13:11:59;;;;;;;6.63;3.60;;;;;;;7.08;67.15;98815.78;6164717;28;20649;-59
2024/02/02 13:15:12;;;;;;;4.73;3.47;;;;;;;7.16;66.19;98812.22;6165746;28;20199;-60
2024/02/02 13:18:18;;;;;;;7.50;3.40;;;;;;;7.20;65.79;98814.28;6159700;28;20245;-60
2024/02/02 13:21:29;;;;;;;4.57;3.00;;;;;;;7.33;66.81;98815.38;6158147;28;20202;-58
2024/02/02 13:24:45;;;;;;;8.17;4.00;;;;;;;7.42;64.54;98788.53;6159072;28;20205;-60
2024/02/02 13:27:48;;;;;;;6.33;3.03;;;;;;;7.28;66.37;98810.66;6163326;28;20199;-60
2024/02/02 13:31:04;;;;;;;10.63;3.87;;;;;;;7.20;67.47;98794.91;6166914;28;20219;-60
2024/02/02 13:34:12;;;;;;;9.73;4.63;;;;;;;7.22;65.53;98801.66;6163054;28;20288;-59
2024/02/02 13:37:28;;;;;;;6.23;3.43;;;;;;;7.08;66.77;98814.97;6159158;28;20683;-59
2024/02/02 13:40:31;;;;;;;7.83;3.80;;;;;;;7.30;66.58;98802.53;6160026;28;20206;-61
2024/02/02 13:43:35;;;;;;;6.50;3.73;;;;;;;7.18;65.65;98788.97;6162816;28;20237;-59
2024/02/02 13:46:46;;;;;;;7.90;3.47;;;;;;;7.14;69.03;98795.66;6159402;28;20676;-60
2024/02/02 13:49:55;;;;;;;7.13;3.13;;;;;;;7.32;65.90;98792.53;6162025;28;20341;-61
2024/02/02 13:52:57;;;;;;;5.87;3.33;;;;;;;7.16;66.68;98798.94;6166260;28;20193;-60
2024/02/02 13:56:04;;;;;;;4.17;3.10;;;;;;;7.10;68.02;98802.38;6158500;28;20722;-60
2024/02/02 13:59:06;;;;;;;5.07;3.10;;;;;;;7.46;66.11;98778.38;6155063;28;20200;-60
2024/02/02 14:02:09;;;;;;;9.97;3.23;;;;;;;7.24;65.37;98782.88;6155506;28;20221;-60
2024/02/02 14:05:12;;;;;;;10.60;2.83;;;;;;;7.02;65.48;98786.59;6163217;28;20713;-60
2024/02/02 14:08:14;;;;;;;6.00;3.40;;;;;;;6.91;65.26;98780.00;6165977;28;20200;-60
2024/02/02 14:11:30;;;;;;;6.53;3.13;;;;;;;6.96;67.44;98781.06;6158707;28;20253;-59
2024/02/02 14:14:33;;;;;;;7.47;3.40;;;;;;;6.80;69.32;98791.94;6155911;28;20568;-59
2024/02/02 14:17:35;;;;;;;7.20;3.50;;;;;;;6.68;72.14;98775.72;6164209;28;20283;-60
2024/02/02 14:20:37;;;;;;;5.03;3.13;;;;;;;6.43;71.46;98777.09;6160422;28;20203;-60
2024/02/02 14:23:40;;;;;;;8.03;3.50;;;;;;;6.41;74.39;98772.00;6161325;28;20223;-60
2024/02/02 14:26:53;;;;;;;5.60;3.40;;;;;;;6.13;76.00;98777.19;6163381;28;20196;-60
2024/02/02 14:29:55;;;;;;;7.90;3.90;;;;;;;6.01;77.35;98770.75;6165358;28;20197;-60
2024/02/02 14:32:58;;;;;;;5.10;3.33;;;;;;;6.08;77.11;98765.53;6157245;28;20222;-59
2024/02/02 14:36:19;;;;;;;6.47;3.23;;;;;;;5.87;80.88;98771.56;6159046;28;20199;-59
2024/02/02 14:39:25;;;;;;;4.77;3.20;;;;;;;5.82;83.67;98772.13;6162798;28;20251;-58
2024/02/02 14:42:28;;;;;;;8.83;3.80;;;;;;;5.88;91.69;98754.69;6159498;28;20764;-59